Terminal Aerodrome Forecast
Issued by NWS Binghamton, NY

Home | Current Version | Previous Version | Text Only | Print | Product List | Glossary On
Versions: 1 2 3 4 5 6 7 8 9 10 11 12 13 14 15 16 17
997
FTUS41 KBGM 091738
TAFBGM
TAF
KBGM 091738Z 0918/1018 20004KT P6SM OVC015
      TEMPO 0921/0923 2SM -SHSN
     FM092300 19004KT 1 1/2SM -SN BKN008 OVC012
     FM100500 20004KT P6SM BKN025 OVC040
     FM101400 25010KT 2SM -SN OVC012=

USA.gov is the U.S. government's official web portal to all federal, state and local government web resources and services.